sensor_id;sensor_type;location;lat;lon;timestamp;pressure;altitude;pressure_sealevel;temperature;humidity
45129;BME280;35512;56.312;101.728;2023-02-20T00:01:51;97320.78;;;-11.73;79.38
45129;BME280;35512;56.312;101.728;2023-02-20T00:04:21;97328.38;;;-11.72;79.72
45129;BME280;35512;56.312;101.728;2023-02-20T00:06:50;97318.97;;;-11.73;79.33
45129;BME280;35512;56.312;101.728;2023-02-20T00:09:19;97315.53;;;-11.80;79.05
45129;BME280;35512;56.312;101.728;2023-02-20T00:11:48;97321.75;;;-11.81;79.37
45129;BME280;35512;56.312;101.728;2023-02-20T00:14:17;97320.97;;;-11.81;78.96
45129;BME280;35512;56.312;101.728;2023-02-20T00:16:46;97319.34;;;-11.82;79.46
45129;BME280;35512;56.312;101.728;2023-02-20T00:19:15;97311.31;;;-11.81;79.45
45129;BME280;35512;56.312;101.728;2023-02-20T00:21:48;97322.38;;;-11.79;78.86
45129;BME280;35512;56.312;101.728;2023-02-20T00:24:19;97327.97;;;-11.82;78.98
45129;BME280;35512;56.312;101.728;2023-02-20T00:26:51;97327.16;;;-11.82;79.29
45129;BME280;35512;56.312;101.728;2023-02-20T00:29:22;97329.97;;;-11.84;78.73
45129;BME280;35512;56.312;101.728;2023-02-20T00:31:57;97324.94;;;-11.92;78.74
45129;BME280;35512;56.312;101.728;2023-02-20T00:34:27;97327.34;;;-11.91;78.91
45129;BME280;35512;56.312;101.728;2023-02-20T00:36:56;97331.13;;;-11.93;78.73
45129;BME280;35512;56.312;101.728;2023-02-20T00:39:25;97320.31;;;-11.90;78.87
45129;BME280;35512;56.312;101.728;2023-02-20T00:41:54;97329.97;;;-11.84;79.16
45129;BME280;35512;56.312;101.728;2023-02-20T00:44:26;97327.78;;;-11.80;78.86
45129;BME280;35512;56.312;101.728;2023-02-20T00:46:55;97326.78;;;-11.73;79.00
45129;BME280;35512;56.312;101.728;2023-02-20T00:49:24;97326.19;;;-11.68;78.98
45129;BME280;35512;56.312;101.728;2023-02-20T00:51:53;97327.41;;;-11.64;79.28
45129;BME280;35512;56.312;101.728;2023-02-20T00:54:22;97328.63;;;-11.60;79.04
45129;BME280;35512;56.312;101.728;2023-02-20T00:56:51;97331.44;;;-11.61;78.97
45129;BME280;35512;56.312;101.728;2023-02-20T00:59:20;97330.59;;;-11.62;79.08
45129;BME280;35512;56.312;101.728;2023-02-20T01:01:49;97327.41;;;-11.57;78.84
45129;BME280;35512;56.312;101.728;2023-02-20T01:04:19;97321.00;;;-11.61;78.80
45129;BME280;35512;56.312;101.728;2023-02-20T01:06:48;97330.81;;;-11.57;78.84
45129;BME280;35512;56.312;101.728;2023-02-20T01:09:17;97327.03;;;-11.41;78.74
45129;BME280;35512;56.312;101.728;2023-02-20T01:11:48;97319.78;;;-11.45;78.80
45129;BME280;35512;56.312;101.728;2023-02-20T01:14:17;97317.81;;;-11.30;78.74
45129;BME280;35512;56.312;101.728;2023-02-20T01:16:47;97319.22;;;-11.20;78.98
45129;BME280;35512;56.312;101.728;2023-02-20T01:19:18;97317.22;;;-11.12;78.54
45129;BME280;35512;56.312;101.728;2023-02-20T01:21:47;97328.63;;;-11.06;78.55
45129;BME280;35512;56.312;101.728;2023-02-20T01:24:17;97317.00;;;-11.03;78.09
45129;BME280;35512;56.312;101.728;2023-02-20T01:26:48;97309.75;;;-10.95;78.72
45129;BME280;35512;56.312;101.728;2023-02-20T01:29:17;97318.56;;;-10.76;78.86
45129;BME280;35512;56.312;101.728;2023-02-20T01:31:50;97316.34;;;-10.65;79.01
45129;BME280;35512;56.312;101.728;2023-02-20T01:34:20;97309.50;;;-10.60;78.90
45129;BME280;35512;56.312;101.728;2023-02-20T01:36:51;97321.53;;;-10.52;78.58
45129;BME280;35512;56.312;101.728;2023-02-20T01:39:25;97310.47;;;-10.54;78.43
45129;BME280;35512;56.312;101.728;2023-02-20T01:41:58;97308.84;;;-10.48;78.46
45129;BME280;35512;56.312;101.728;2023-02-20T01:44:31;97305.66;;;-10.50;78.67
45129;BME280;35512;56.312;101.728;2023-02-20T01:47:08;97306.22;;;-10.42;78.30
45129;BME280;35512;56.312;101.728;2023-02-20T01:49:38;97310.03;;;-10.38;78.36
45129;BME280;35512;56.312;101.728;2023-02-20T01:52:18;97313.81;;;-10.33;78.31
45129;BME280;35512;56.312;101.728;2023-02-20T01:54:54;97318.03;;;-10.32;77.58
45129;BME280;35512;56.312;101.728;2023-02-20T01:57:26;97312.00;;;-10.33;77.75
45129;BME280;35512;56.312;101.728;2023-02-20T02:00:04;97313.56;;;-10.25;77.79
45129;BME280;35512;56.312;101.728;2023-02-20T02:02:45;97308.31;;;-10.19;77.99
45129;BME280;35512;56.312;101.728;2023-02-20T02:05:16;97309.91;;;-10.11;77.45
45129;BME280;35512;56.312;101.728;2023-02-20T02:07:46;97310.66;;;-10.04;77.60
45129;BME280;35512;56.312;101.728;2023-02-20T02:10:17;97320.66;;;-9.94;77.55
45129;BME280;35512;56.312;101.728;2023-02-20T02:12:50;97308.50;;;-9.75;78.36
45129;BME280;35512;56.312;101.728;2023-02-20T02:15:22;97311.75;;;-9.47;78.45
45129;BME280;35512;56.312;101.728;2023-02-20T02:27:12;97298.72;;;-8.97;77.57
45129;BME280;35512;56.312;101.728;2023-02-20T02:29:57;97305.47;;;-8.89;78.19
45129;BME280;35512;56.312;101.728;2023-02-20T02:43:58;97296.66;;;-8.02;77.87
45129;BME280;35512;56.312;101.728;2023-02-20T02:49:28;97302.78;;;-8.08;76.62
45129;BME280;35512;56.312;101.728;2023-02-20T02:51:59;97298.78;;;-8.11;76.36
45129;BME280;35512;56.312;101.728;2023-02-20T02:54:29;97298.22;;;-8.32;75.85
45129;BME280;35512;56.312;101.728;2023-02-20T02:59:49;97301.25;;;-8.46;74.80
45129;BME280;35512;56.312;101.728;2023-02-20T03:02:21;97299.31;;;-8.58;75.41
45129;BME280;35512;56.312;101.728;2023-02-20T03:04:53;97293.50;;;-8.60;75.30
45129;BME280;35512;56.312;101.728;2023-02-20T03:07:22;97304.50;;;-8.51;75.50
45129;BME280;35512;56.312;101.728;2023-02-20T03:10:00;97303.38;;;-8.43;75.51
45129;BME280;35512;56.312;101.728;2023-02-20T03:12:38;97300.53;;;-8.42;75.13
45129;BME280;35512;56.312;101.728;2023-02-20T03:15:16;97283.09;;;-8.48;75.84
45129;BME280;35512;56.312;101.728;2023-02-20T03:18:52;97302.56;;;-8.25;75.94
45129;BME280;35512;56.312;101.728;2023-02-20T03:21:16;97295.19;;;-8.17;75.89
45129;BME280;35512;56.312;101.728;2023-02-20T03:23:52;97295.78;;;-7.96;76.37
45129;BME280;35512;56.312;101.728;2023-02-20T03:26:29;97297.72;;;-7.91;76.09
45129;BME280;35512;56.312;101.728;2023-02-20T03:29:10;97296.97;;;-7.80;76.70
45129;BME280;35512;56.312;101.728;2023-02-20T03:32:23;97298.25;;;-7.71;76.89
45129;BME280;35512;56.312;101.728;2023-02-20T03:34:52;97296.09;;;-7.74;76.50
45129;BME280;35512;56.312;101.728;2023-02-20T03:37:42;97289.69;;;-7.78;76.46
45129;BME280;35512;56.312;101.728;2023-02-20T03:40:31;97288.97;;;-7.85;76.70
45129;BME280;35512;56.312;101.728;2023-02-20T03:43:20;97286.34;;;-7.85;77.06
45129;BME280;35512;56.312;101.728;2023-02-20T03:45:51;97284.44;;;-7.78;77.44
45129;BME280;35512;56.312;101.728;2023-02-20T03:48:31;97270.50;;;-7.78;77.49
45129;BME280;35512;56.312;101.728;2023-02-20T03:51:02;97272.03;;;-7.71;77.64
45129;BME280;35512;56.312;101.728;2023-02-20T03:53:55;97278.28;;;-7.72;77.18
45129;BME280;35512;56.312;101.728;2023-02-20T03:56:30;97277.81;;;-7.81;77.40
45129;BME280;35512;56.312;101.728;2023-02-20T03:59:05;97281.34;;;-7.75;77.82
45129;BME280;35512;56.312;101.728;2023-02-20T04:01:41;97281.34;;;-7.75;77.69
45129;BME280;35512;56.312;101.728;2023-02-20T04:04:15;97265.50;;;-7.80;77.91
45129;BME280;35512;56.312;101.728;2023-02-20T04:06:49;97280.59;;;-7.64;78.27
45129;BME280;35512;56.312;101.728;2023-02-20T04:09:29;97266.34;;;-7.56;78.28
45129;BME280;35512;56.312;101.728;2023-02-20T04:14:44;97272.16;;;-7.66;77.78
45129;BME280;35512;56.312;101.728;2023-02-20T04:17:24;97253.53;;;-7.76;77.91
45129;BME280;35512;56.312;101.728;2023-02-20T04:19:55;97271.16;;;-7.53;78.10
45129;BME280;35512;56.312;101.728;2023-02-20T04:22:28;97262.13;;;-7.57;77.82
45129;BME280;35512;56.312;101.728;2023-02-20T04:25:02;97264.75;;;-7.69;76.94
45129;BME280;35512;56.312;101.728;2023-02-20T04:27:35;97260.16;;;-7.73;77.21
45129;BME280;35512;56.312;101.728;2023-02-20T04:30:04;97256.16;;;-7.76;77.14
45129;BME280;35512;56.312;101.728;2023-02-20T04:32:34;97244.66;;;-7.75;77.02
45129;BME280;35512;56.312;101.728;2023-02-20T04:35:03;97252.69;;;-7.88;76.60
45129;BME280;35512;56.312;101.728;2023-02-20T04:37:32;97257.00;;;-7.94;75.18
45129;BME280;35512;56.312;101.728;2023-02-20T04:40:01;97259.63;;;-8.24;74.33
45129;BME280;35512;56.312;101.728;2023-02-20T04:42:31;97261.47;;;-8.43;74.21
45129;BME280;35512;56.312;101.728;2023-02-20T04:45:00;97266.81;;;-8.50;75.48
45129;BME280;35512;56.312;101.728;2023-02-20T04:47:31;97249.03;;;-8.48;75.03
45129;BME280;35512;56.312;101.728;2023-02-20T04:50:00;97266.44;;;-8.54;73.48
45129;BME280;35512;56.312;101.728;2023-02-20T04:52:30;97272.84;;;-8.68;74.53
45129;BME280;35512;56.312;101.728;2023-02-20T04:54:59;97261.94;;;-8.65;74.78
45129;BME280;35512;56.312;101.728;2023-02-20T04:57:29;97252.41;;;-8.78;74.26
45129;BME280;35512;56.312;101.728;2023-02-20T04:59:58;97242.00;;;-8.85;74.49
45129;BME280;35512;56.312;101.728;2023-02-20T05:02:30;97245.63;;;-8.86;75.36
45129;BME280;35512;56.312;101.728;2023-02-20T05:04:59;97253.84;;;-8.82;75.43
45129;BME280;35512;56.312;101.728;2023-02-20T05:07:29;97247.25;;;-8.85;74.97
45129;BME280;35512;56.312;101.728;2023-02-20T05:09:58;97253.06;;;-8.82;75.70
45129;BME280;35512;56.312;101.728;2023-02-20T05:12:27;97250.75;;;-8.72;75.53
45129;BME280;35512;56.312;101.728;2023-02-20T05:14:55;97243.66;;;-8.72;75.54
45129;BME280;35512;56.312;101.728;2023-02-20T05:17:24;97238.59;;;-8.67;76.01
45129;BME280;35512;56.312;101.728;2023-02-20T05:19:53;97244.91;;;-8.56;76.46
45129;BME280;35512;56.312;101.728;2023-02-20T05:22:22;97242.31;;;-8.44;76.60
45129;BME280;35512;56.312;101.728;2023-02-20T05:24:51;97242.13;;;-8.42;76.13
45129;BME280;35512;56.312;101.728;2023-02-20T05:27:22;97231.91;;;-8.62;75.19
45129;BME280;35512;56.312;101.728;2023-02-20T05:29:56;97247.75;;;-8.76;75.55
45129;BME280;35512;56.312;101.728;2023-02-20T05:32:28;97238.44;;;-8.72;76.81
45129;BME280;35512;56.312;101.728;2023-02-20T05:34:57;97227.09;;;-8.65;77.05
45129;BME280;35512;56.312;101.728;2023-02-20T05:37:27;97235.94;;;-8.48;76.86
45129;BME280;35512;56.312;101.728;2023-02-20T05:39:55;97235.94;;;-8.48;77.03
45129;BME280;35512;56.312;101.728;2023-02-20T05:42:24;97232.91;;;-8.45;76.55
45129;BME280;35512;56.312;101.728;2023-02-20T05:44:53;97235.28;;;-8.43;77.25
45129;BME280;35512;56.312;101.728;2023-02-20T05:47:22;97240.66;;;-8.38;76.88
45129;BME280;35512;56.312;101.728;2023-02-20T05:49:51;97248.94;;;-8.41;76.89
45129;BME280;35512;56.312;101.728;2023-02-20T05:52:20;97241.91;;;-8.41;76.57
45129;BME280;35512;56.312;101.728;2023-02-20T05:54:49;97235.81;;;-8.53;76.95
45129;BME280;35512;56.312;101.728;2023-02-20T05:57:18;97233.66;;;-8.44;77.49
45129;BME280;35512;56.312;101.728;2023-02-20T05:59:46;97240.69;;;-8.26;78.10
45129;BME280;35512;56.312;101.728;2023-02-20T06:02:15;97233.34;;;-8.18;77.65
45129;BME280;35512;56.312;101.728;2023-02-20T06:04:45;97229.63;;;-7.98;77.96
45129;BME280;35512;56.312;101.728;2023-02-20T06:07:14;97230.94;;;-7.89;77.83
45129;BME280;35512;56.312;101.728;2023-02-20T06:09:43;97218.75;;;-7.83;77.98
45129;BME280;35512;56.312;101.728;2023-02-20T06:12:12;97213.91;;;-7.98;76.85
45129;BME280;35512;56.312;101.728;2023-02-20T06:14:42;97225.50;;;-8.06;77.00
45129;BME280;35512;56.312;101.728;2023-02-20T06:17:10;97220.31;;;-8.24;76.72
45129;BME280;35512;56.312;101.728;2023-02-20T06:19:39;97220.63;;;-8.33;77.04
45129;BME280;35512;56.312;101.728;2023-02-20T06:22:08;97216.84;;;-8.37;77.07
45129;BME280;35512;56.312;101.728;2023-02-20T06:24:37;97225.41;;;-8.29;77.67
45129;BME280;35512;56.312;101.728;2023-02-20T06:27:06;97224.31;;;-8.22;77.38
45129;BME280;35512;56.312;101.728;2023-02-20T06:29:36;97226.50;;;-8.19;77.62
45129;BME280;35512;56.312;101.728;2023-02-20T06:32:05;97223.88;;;-8.19;76.86
45129;BME280;35512;56.312;101.728;2023-02-20T06:34:34;97212.22;;;-8.23;77.39
45129;BME280;35512;56.312;101.728;2023-02-20T06:37:03;97227.38;;;-8.25;76.56
45129;BME280;35512;56.312;101.728;2023-02-20T06:39:32;97226.34;;;-8.24;77.17
45129;BME280;35512;56.312;101.728;2023-02-20T06:42:01;97225.25;;;-8.16;77.53
45129;BME280;35512;56.312;101.728;2023-02-20T06:44:30;97226.09;;;-8.04;77.46
45129;BME280;35512;56.312;101.728;2023-02-20T06:47:00;97228.69;;;-7.73;77.93
45129;BME280;35512;56.312;101.728;2023-02-20T06:49:29;97219.94;;;-7.55;77.52
45129;BME280;35512;56.312;101.728;2023-02-20T06:51:58;97223.03;;;-7.47;77.68
45129;BME280;35512;56.312;101.728;2023-02-20T06:54:31;97224.88;;;-7.35;77.48
45129;BME280;35512;56.312;101.728;2023-02-20T06:57:01;97213.34;;;-7.22;77.95
45129;BME280;35512;56.312;101.728;2023-02-20T06:59:30;97213.56;;;-7.12;77.52
45129;BME280;35512;56.312;101.728;2023-02-20T07:02:00;97206.94;;;-7.15;77.52
45129;BME280;35512;56.312;101.728;2023-02-20T07:04:29;97204.31;;;-7.03;78.03
45129;BME280;35512;56.312;101.728;2023-02-20T07:06:58;97203.75;;;-6.93;77.69
45129;BME280;35512;56.312;101.728;2023-02-20T07:09:27;97201.69;;;-6.91;78.02
45129;BME280;35512;56.312;101.728;2023-02-20T07:11:57;97206.72;;;-6.89;77.98
45129;BME280;35512;56.312;101.728;2023-02-20T07:14:26;97201.81;;;-6.98;78.06
45129;BME280;35512;56.312;101.728;2023-02-20T07:16:55;97207.31;;;-7.11;77.48
45129;BME280;35512;56.312;101.728;2023-02-20T07:19:24;97192.25;;;-7.27;77.53
45129;BME280;35512;56.312;101.728;2023-02-20T07:21:52;97194.72;;;-7.44;77.17
45129;BME280;35512;56.312;101.728;2023-02-20T07:24:21;97206.16;;;-7.51;77.96
45129;BME280;35512;56.312;101.728;2023-02-20T07:26:50;97189.84;;;-7.41;78.87
45129;BME280;35512;56.312;101.728;2023-02-20T07:29:19;97192.91;;;-7.44;78.31
45129;BME280;35512;56.312;101.728;2023-02-20T07:31:48;97207.53;;;-7.48;78.66
45129;BME280;35512;56.312;101.728;2023-02-20T07:34:17;97211.84;;;-7.54;78.50
45129;BME280;35512;56.312;101.728;2023-02-20T07:36:46;97214.34;;;-7.59;79.05
45129;BME280;35512;56.312;101.728;2023-02-20T07:39:15;97211.97;;;-7.60;79.15
45129;BME280;35512;56.312;101.728;2023-02-20T07:41:44;97207.66;;;-7.43;79.37
45129;BME280;35512;56.312;101.728;2023-02-20T07:44:52;97212.53;;;-7.23;79.75
45129;BME280;35512;56.312;101.728;2023-02-20T07:47:21;97212.31;;;-7.21;78.77
45129;BME280;35512;56.312;101.728;2023-02-20T07:49:50;97216.75;;;-7.34;79.13
45129;BME280;35512;56.312;101.728;2023-02-20T07:52:19;97219.63;;;-7.23;79.56
45129;BME280;35512;56.312;101.728;2023-02-20T07:54:47;97220.31;;;-7.04;79.77
45129;BME280;35512;56.312;101.728;2023-02-20T07:57:16;97224.63;;;-6.86;79.85
45129;BME280;35512;56.312;101.728;2023-02-20T07:59:45;97215.38;;;-6.77;79.67
45129;BME280;35512;56.312;101.728;2023-02-20T08:02:14;97211.97;;;-6.89;79.58
45129;BME280;35512;56.312;101.728;2023-02-20T08:04:44;97205.69;;;-7.00;79.25
45129;BME280;35512;56.312;101.728;2023-02-20T08:07:13;97193.25;;;-7.28;79.02
45129;BME280;35512;56.312;101.728;2023-02-20T08:09:42;97208.88;;;-7.34;80.00
45129;BME280;35512;56.312;101.728;2023-02-20T08:12:11;97202.00;;;-6.87;81.07
45129;BME280;35512;56.312;101.728;2023-02-20T08:14:42;97202.88;;;-6.17;81.19
45129;BME280;35512;56.312;101.728;2023-02-20T08:17:11;97205.88;;;-5.46;81.40
45129;BME280;35512;56.312;101.728;2023-02-20T08:19:40;97201.94;;;-5.09;80.26
45129;BME280;35512;56.312;101.728;2023-02-20T08:22:09;97219.72;;;-4.99;79.29
45129;BME280;35512;56.312;101.728;2023-02-20T08:24:38;97208.00;;;-5.09;79.19
45129;BME280;35512;56.312;101.728;2023-02-20T08:27:07;97204.97;;;-5.17;79.09
45129;BME280;35512;56.312;101.728;2023-02-20T08:29:36;97205.84;;;-5.12;79.69
45129;BME280;35512;56.312;101.728;2023-02-20T08:32:05;97213.09;;;-5.02;79.65
45129;BME280;35512;56.312;101.728;2023-02-20T08:34:34;97213.25;;;-4.92;79.90
45129;BME280;35512;56.312;101.728;2023-02-20T08:37:03;97210.84;;;-4.93;79.78
45129;BME280;35512;56.312;101.728;2023-02-20T08:39:32;97218.16;;;-5.00;79.73
45129;BME280;35512;56.312;101.728;2023-02-20T08:42:01;97224.41;;;-5.23;79.47
45129;BME280;35512;56.312;101.728;2023-02-20T08:44:29;97214.72;;;-5.69;79.24
45129;BME280;35512;56.312;101.728;2023-02-20T08:46:58;97217.13;;;-5.96;79.74
45129;BME280;35512;56.312;101.728;2023-02-20T08:49:27;97219.03;;;-6.25;80.13
45129;BME280;35512;56.312;101.728;2023-02-20T08:51:56;97223.53;;;-6.50;80.18
45129;BME280;35512;56.312;101.728;2023-02-20T08:54:25;97233.94;;;-6.55;80.36
45129;BME280;35512;56.312;101.728;2023-02-20T08:56:54;97235.19;;;-6.57;80.71
45129;BME280;35512;56.312;101.728;2023-02-20T08:59:23;97230.09;;;-6.76;80.76
45129;BME280;35512;56.312;101.728;2023-02-20T09:01:53;97229.75;;;-6.91;80.83
45129;BME280;35512;56.312;101.728;2023-02-20T09:04:22;97230.00;;;-7.05;80.63
45129;BME280;35512;56.312;101.728;2023-02-20T09:06:51;97232.66;;;-7.17;80.94
45129;BME280;35512;56.312;101.728;2023-02-20T09:09:20;97231.34;;;-7.38;80.73
45129;BME280;35512;56.312;101.728;2023-02-20T09:11:49;97228.63;;;-7.55;80.87
45129;BME280;35512;56.312;101.728;2023-02-20T09:14:18;97229.06;;;-7.58;81.31
45129;BME280;35512;56.312;101.728;2023-02-20T09:16:51;97230.09;;;-7.59;81.30
45129;BME280;35512;56.312;101.728;2023-02-20T09:19:19;97237.63;;;-7.51;81.29
45129;BME280;35512;56.312;101.728;2023-02-20T09:21:49;97232.75;;;-7.47;81.33
45129;BME280;35512;56.312;101.728;2023-02-20T09:24:18;97233.53;;;-7.47;81.24
45129;BME280;35512;56.312;101.728;2023-02-20T09:26:47;97223.94;;;-7.53;81.24
45129;BME280;35512;56.312;101.728;2023-02-20T09:29:16;97227.22;;;-7.57;81.07
45129;BME280;35512;56.312;101.728;2023-02-20T09:31:45;97230.31;;;-7.60;81.24
45129;BME280;35512;56.312;101.728;2023-02-20T09:34:15;97236.69;;;-7.68;80.89
45129;BME280;35512;56.312;101.728;2023-02-20T09:36:44;97231.16;;;-7.78;80.97
45129;BME280;35512;56.312;101.728;2023-02-20T09:39:13;97222.38;;;-7.84;81.28
45129;BME280;35512;56.312;101.728;2023-02-20T09:50:00;97233.72;;;-8.02;81.20
45129;BME280;35512;56.312;101.728;2023-02-20T09:52:33;97238.72;;;-8.12;81.24
45129;BME280;35512;56.312;101.728;2023-02-20T09:55:13;97239.22;;;-8.22;81.15
45129;BME280;35512;56.312;101.728;2023-02-20T09:57:48;97233.50;;;-8.31;81.26
45129;BME280;35512;56.312;101.728;2023-02-20T10:00:29;97238.75;;;-8.31;81.64
45129;BME280;35512;56.312;101.728;2023-02-20T10:03:28;97228.91;;;-8.36;81.55
45129;BME280;35512;56.312;101.728;2023-02-20T10:06:18;97246.00;;;-8.33;81.38
45129;BME280;35512;56.312;101.728;2023-02-20T10:08:48;97240.22;;;-8.35;81.67
45129;BME280;35512;56.312;101.728;2023-02-20T10:19:52;97247.56;;;-8.44;81.23
45129;BME280;35512;56.312;101.728;2023-02-20T10:22:43;97242.56;;;-8.45;81.67
45129;BME280;35512;56.312;101.728;2023-02-20T10:25:50;97247.69;;;-8.51;81.38
45129;BME280;35512;56.312;101.728;2023-02-20T10:28:16;97243.69;;;-8.53;81.10
45129;BME280;35512;56.312;101.728;2023-02-20T10:31:14;97257.00;;;-8.55;81.67
45129;BME280;35512;56.312;101.728;2023-02-20T10:34:00;97260.34;;;-8.47;81.85
45129;BME280;35512;56.312;101.728;2023-02-20T10:36:53;97251.56;;;-8.41;81.64
45129;BME280;35512;56.312;101.728;2023-02-20T10:39:23;97244.50;;;-8.41;81.97
45129;BME280;35512;56.312;101.728;2023-02-20T10:42:18;97249.53;;;-8.39;82.02
45129;BME280;35512;56.312;101.728;2023-02-20T10:45:08;97248.50;;;-8.38;81.75
45129;BME280;35512;56.312;101.728;2023-02-20T10:47:48;97247.34;;;-8.42;81.69
45129;BME280;35512;56.312;101.728;2023-02-20T10:52:58;97251.75;;;-8.55;81.59
45129;BME280;35512;56.312;101.728;2023-02-20T10:56:15;97262.66;;;-8.58;81.44
45129;BME280;35512;56.312;101.728;2023-02-20T11:01:26;97256.63;;;-8.58;81.85
45129;BME280;35512;56.312;101.728;2023-02-20T11:06:59;97265.94;;;-8.62;81.84
45129;BME280;35512;56.312;101.728;2023-02-20T11:09:29;97255.69;;;-8.64;81.59
45129;BME280;35512;56.312;101.728;2023-02-20T11:11:59;97251.84;;;-8.61;81.53
45129;BME280;35512;56.312;101.728;2023-02-20T11:14:40;97258.81;;;-8.55;81.76
45129;BME280;35512;56.312;101.728;2023-02-20T11:19:43;97267.28;;;-8.41;81.63
45129;BME280;35512;56.312;101.728;2023-02-20T11:22:14;97262.41;;;-8.38;81.61
45129;BME280;35512;56.312;101.728;2023-02-20T11:24:45;97277.53;;;-8.40;81.80
45129;BME280;35512;56.312;101.728;2023-02-20T11:27:22;97276.75;;;-8.40;81.50
45129;BME280;35512;56.312;101.728;2023-02-20T11:30:02;97269.09;;;-8.42;81.70
45129;BME280;35512;56.312;101.728;2023-02-20T11:32:35;97283.44;;;-8.44;81.38
45129;BME280;35512;56.312;101.728;2023-02-20T11:38:59;97273.66;;;-8.37;81.70
45129;BME280;35512;56.312;101.728;2023-02-20T11:41:34;97272.03;;;-8.32;81.94
45129;BME280;35512;56.312;101.728;2023-02-20T11:46:43;97280.50;;;-8.18;81.81
45129;BME280;35512;56.312;101.728;2023-02-20T11:49:26;97282.84;;;-8.09;82.00
45129;BME280;35512;56.312;101.728;2023-02-20T11:54:46;97275.44;;;-8.01;82.00
45129;BME280;35512;56.312;101.728;2023-02-20T11:57:26;97276.38;;;-7.95;82.09
45129;BME280;35512;56.312;101.728;2023-02-20T12:00:15;97282.13;;;-7.86;82.04
45129;BME280;35512;56.312;101.728;2023-02-20T12:02:53;97283.63;;;-7.78;81.99
45129;BME280;35512;56.312;101.728;2023-02-20T12:05:37;97279.75;;;-7.76;81.77
45129;BME280;35512;56.312;101.728;2023-02-20T12:11:15;97275.66;;;-7.72;81.85
45129;BME280;35512;56.312;101.728;2023-02-20T12:13:47;97283.09;;;-7.69;81.94
45129;BME280;35512;56.312;101.728;2023-02-20T12:19:17;97272.38;;;-7.67;81.93
45129;BME280;35512;56.312;101.728;2023-02-20T12:22:10;97286.31;;;-7.55;82.06
45129;BME280;35512;56.312;101.728;2023-02-20T12:30:57;97278.81;;;-7.39;81.96
45129;BME280;35512;56.312;101.728;2023-02-20T12:41:57;97275.16;;;-7.50;81.86
45129;BME280;35512;56.312;101.728;2023-02-20T12:55:12;97284.56;;;-7.19;82.28
45129;BME280;35512;56.312;101.728;2023-02-20T13:00:25;97289.59;;;-7.05;82.26
45129;BME280;35512;56.312;101.728;2023-02-20T13:03:05;97290.63;;;-7.06;81.97
45129;BME280;35512;56.312;101.728;2023-02-20T13:05:42;97287.66;;;-6.98;82.38
45129;BME280;35512;56.312;101.728;2023-02-20T13:11:09;97275.47;;;-6.92;82.56
45129;BME280;35512;56.312;101.728;2023-02-20T13:13:51;97281.72;;;-6.82;82.35
45129;BME280;35512;56.312;101.728;2023-02-20T13:16:33;97280.47;;;-6.79;82.54
45129;BME280;35512;56.312;101.728;2023-02-20T13:19:29;97291.66;;;-6.72;82.45
45129;BME280;35512;56.312;101.728;2023-02-20T13:22:05;97281.72;;;-6.70;82.61
45129;BME280;35512;56.312;101.728;2023-02-20T13:24:36;97278.84;;;-6.68;82.40
45129;BME280;35512;56.312;101.728;2023-02-20T13:27:08;97275.91;;;-6.72;82.25
45129;BME280;35512;56.312;101.728;2023-02-20T13:30:17;97279.44;;;-6.66;82.41
45129;BME280;35512;56.312;101.728;2023-02-20T13:33:27;97274.41;;;-6.68;82.25
45129;BME280;35512;56.312;101.728;2023-02-20T13:35:57;97266.31;;;-6.78;82.34
45129;BME280;35512;56.312;101.728;2023-02-20T13:38:27;97268.38;;;-6.80;82.34
45129;BME280;35512;56.312;101.728;2023-02-20T13:43:35;97273.50;;;-6.85;82.72
45129;BME280;35512;56.312;101.728;2023-02-20T13:46:10;97280.00;;;-6.88;82.77
45129;BME280;35512;56.312;101.728;2023-02-20T13:48:45;97283.09;;;-6.91;82.67
45129;BME280;35512;56.312;101.728;2023-02-20T13:53:48;97287.56;;;-7.03;82.62
45129;BME280;35512;56.312;101.728;2023-02-20T13:56:19;97282.97;;;-7.08;82.80
45129;BME280;35512;56.312;101.728;2023-02-20T13:58:50;97282.63;;;-7.23;82.60
45129;BME280;35512;56.312;101.728;2023-02-20T14:01:21;97281.31;;;-7.44;82.73
45129;BME280;35512;56.312;101.728;2023-02-20T14:04:04;97283.22;;;-7.64;82.82
45129;BME280;35512;56.312;101.728;2023-02-20T14:06:48;97284.06;;;-7.82;83.15
45129;BME280;35512;56.312;101.728;2023-02-20T14:09:27;97263.59;;;-8.03;82.81
45129;BME280;35512;56.312;101.728;2023-02-20T14:12:12;97268.41;;;-8.00;83.16
45129;BME280;35512;56.312;101.728;2023-02-20T14:14:43;97275.00;;;-7.98;83.18
45129;BME280;35512;56.312;101.728;2023-02-20T14:17:22;97277.38;;;-8.08;83.52
45129;BME280;35512;56.312;101.728;2023-02-20T14:19:58;97279.63;;;-8.11;83.06
45129;BME280;35512;56.312;101.728;2023-02-20T14:22:41;97277.44;;;-8.15;83.17
45129;BME280;35512;56.312;101.728;2023-02-20T14:27:46;97268.50;;;-8.25;83.34
45129;BME280;35512;56.312;101.728;2023-02-20T14:30:22;97273.44;;;-8.36;83.35
45129;BME280;35512;56.312;101.728;2023-02-20T14:32:56;97270.94;;;-8.42;83.24
45129;BME280;35512;56.312;101.728;2023-02-20T14:38:02;97265.06;;;-8.56;83.50
45129;BME280;35512;56.312;101.728;2023-02-20T14:40:42;97264.19;;;-8.69;83.20
45129;BME280;35512;56.312;101.728;2023-02-20T14:43:18;97261.84;;;-8.77;83.62
45129;BME280;35512;56.312;101.728;2023-02-20T14:46:07;97256.75;;;-8.90;83.00
45129;BME280;35512;56.312;101.728;2023-02-20T14:48:46;97255.84;;;-9.03;83.39
45129;BME280;35512;56.312;101.728;2023-02-20T14:51:24;97256.50;;;-9.07;83.19
45129;BME280;35512;56.312;101.728;2023-02-20T14:54:01;97248.34;;;-9.18;83.49
45129;BME280;35512;56.312;101.728;2023-02-20T14:56:30;97249.16;;;-9.17;83.58
45129;BME280;35512;56.312;101.728;2023-02-20T14:59:32;97264.25;;;-9.19;83.17
45129;BME280;35512;56.312;101.728;2023-02-20T15:04:35;97252.00;;;-9.19;83.69
45129;BME280;35512;56.312;101.728;2023-02-20T15:07:05;97259.25;;;-9.21;83.26